createdAt,value
2023-04-26T00:01:43.028Z,6.68
2023-04-26T00:04:12.970Z,8.15
2023-04-26T00:06:42.930Z,5.88
2023-04-26T00:09:12.651Z,7.38
2023-04-26T00:11:42.390Z,9.30
2023-04-26T00:14:14.734Z,6.75
2023-04-26T00:16:44.506Z,6.32
2023-04-26T00:19:14.190Z,10.10
2023-04-26T00:21:43.855Z,5.93
2023-04-26T00:24:13.559Z,5.15
2023-04-26T00:26:43.256Z,7.05
2023-04-26T00:29:15.962Z,6.47
2023-04-26T00:31:45.771Z,6.72
2023-04-26T00:34:15.995Z,3.83
2023-04-26T00:36:46.201Z,5.63
2023-04-26T00:39:16.571Z,5.00
2023-04-26T00:41:46.309Z,4.78
2023-04-26T00:44:18.620Z,4.70
2023-04-26T00:46:48.373Z,5.50
2023-04-26T00:49:20.028Z,4.85
2023-04-26T00:51:50.159Z,6.47
2023-04-26T00:54:20.136Z,7.55
2023-04-26T00:56:52.200Z,7.38
2023-04-26T00:59:25.176Z,5.72
2023-04-26T01:01:54.914Z,9.38
2023-04-26T01:04:26.443Z,6.35
2023-04-26T01:06:56.578Z,4.35
2023-04-26T01:09:26.361Z,3.85
2023-04-26T01:11:58.551Z,3.58
2023-04-26T01:14:31.392Z,4.80
2023-04-26T01:17:03.208Z,3.65
2023-04-26T01:19:33.017Z,4.28
2023-04-26T01:22:02.687Z,4.72
2023-04-26T01:24:36.253Z,7.88
2023-04-26T01:27:06.685Z,14.43
2023-04-26T01:29:36.508Z,4.32
2023-04-26T01:32:07.573Z,6.35
2023-04-26T01:34:37.480Z,6.97
2023-04-26T01:37:07.925Z,9.52
2023-04-26T01:39:40.475Z,3.85
2023-04-26T01:42:10.157Z,6.07
2023-04-26T01:44:39.876Z,5.70
2023-04-26T01:47:09.503Z,4.28
2023-04-26T01:49:39.225Z,5.00
2023-04-26T01:52:08.878Z,3.58
2023-04-26T01:54:41.439Z,3.90
2023-04-26T01:57:11.261Z,4.82
2023-04-26T01:59:40.990Z,4.45
2023-04-26T02:02:10.874Z,5.22
2023-04-26T02:04:41.158Z,6.22
2023-04-26T02:07:10.828Z,5.95
2023-04-26T02:09:51.233Z,5.82
2023-04-26T02:12:20.925Z,8.73
2023-04-26T02:14:50.650Z,4.10
2023-04-26T02:17:21.440Z,6.43
2023-04-26T02:19:51.127Z,13.15
2023-04-26T02:22:21.928Z,5.38
2023-04-26T02:24:54.590Z,4.10
2023-04-26T02:27:30.155Z,7.35
2023-04-26T02:29:59.832Z,7.20
2023-04-26T02:32:29.798Z,4.68
2023-04-26T02:35:00.972Z,6.20
2023-04-26T02:37:30.734Z,7.72
2023-04-26T02:40:05.483Z,10.05
2023-04-26T02:42:35.256Z,7.07
2023-04-26T02:45:05.081Z,8.70
2023-04-26T02:47:36.987Z,5.15
2023-04-26T02:50:07.711Z,6.50
2023-04-26T02:52:39.291Z,6.97
2023-04-26T02:55:12.051Z,6.25
2023-04-26T02:57:41.852Z,6.38
2023-04-26T03:00:14.246Z,7.65
2023-04-26T03:02:44.303Z,7.00
2023-04-26T03:05:14.136Z,8.95
2023-04-26T03:07:44.192Z,11.02
2023-04-26T03:10:16.623Z,7.70
2023-04-26T03:12:46.942Z,5.15
2023-04-26T03:15:18.514Z,7.15
2023-04-26T03:17:48.607Z,5.47
2023-04-26T03:20:18.915Z,11.18
2023-04-26T03:22:50.059Z,6.63
2023-04-26T03:25:22.481Z,8.15
2023-04-26T03:27:52.302Z,8.35
2023-04-26T03:30:22.197Z,7.68
2023-04-26T03:32:52.576Z,8.52
2023-04-26T03:35:22.366Z,5.63
2023-04-26T03:37:53.433Z,7.30
2023-04-26T03:40:26.504Z,8.05
2023-04-26T03:42:56.210Z,6.43
2023-04-26T03:45:26.974Z,9.25
2023-04-26T03:47:56.938Z,5.75
2023-04-26T03:50:26.817Z,5.55
2023-04-26T03:52:56.640Z,11.23
2023-04-26T03:55:29.643Z,12.38
2023-04-26T03:58:00.723Z,9.50
2023-04-26T04:00:30.435Z,9.85
2023-04-26T04:03:00.371Z,15.82
2023-04-26T04:05:30.408Z,9.10
2023-04-26T04:08:01.073Z,8.55
2023-04-26T04:10:33.456Z,10.50
2023-04-26T04:13:03.172Z,7.88
2023-04-26T04:15:33.403Z,8.23
2023-04-26T04:18:03.210Z,7.32
2023-04-26T04:20:33.056Z,8.48
2023-04-26T04:23:06.385Z,13.50
2023-04-26T04:25:39.085Z,8.32
2023-04-26T04:28:12.172Z,7.47
2023-04-26T04:30:41.966Z,7.18
2023-04-26T04:33:12.374Z,10.45
2023-04-26T04:35:44.947Z,8.25
2023-04-26T04:38:14.674Z,9.80
2023-04-26T04:40:47.382Z,9.50
2023-04-26T04:43:17.895Z,13.45
2023-04-26T04:45:49.431Z,11.45
2023-04-26T04:48:20.682Z,13.68
2023-04-26T04:50:50.734Z,11.88
2023-04-26T04:53:20.539Z,12.65
2023-04-26T04:55:53.219Z,12.77
2023-04-26T04:58:22.956Z,11.85
2023-04-26T05:00:54.363Z,13.35
2023-04-26T05:03:30.291Z,13.70
2023-04-26T05:06:00.269Z,13.63
2023-04-26T05:08:29.995Z,17.23
2023-04-26T05:11:05.274Z,14.95
2023-04-26T05:13:35.068Z,16.88
2023-04-26T05:16:04.926Z,15.95
2023-04-26T05:18:34.786Z,19.98
2023-04-26T05:21:05.183Z,13.32
2023-04-26T05:23:35.126Z,17.08
2023-04-26T05:26:09.311Z,19.10
2023-04-26T05:28:57.462Z,15.02
2023-04-26T05:31:32.951Z,19.23
2023-04-26T05:34:24.380Z,20.50
2023-04-26T05:36:58.396Z,12.98
2023-04-26T05:39:28.455Z,14.15
2023-04-26T05:42:01.749Z,15.93
2023-04-26T05:44:31.478Z,14.77
2023-04-26T05:47:03.314Z,18.48
2023-04-26T05:49:34.102Z,16.50
2023-04-26T05:52:04.718Z,13.43
2023-04-26T05:54:35.195Z,13.73
2023-04-26T05:57:08.450Z,16.05
2023-04-26T05:59:41.705Z,16.95
2023-04-26T06:02:12.509Z,13.60
2023-04-26T06:04:43.162Z,11.25
2023-04-26T06:07:17.242Z,16.25
2023-04-26T06:09:49.654Z,13.77
2023-04-26T06:12:22.113Z,15.90
2023-04-26T06:14:52.036Z,10.90
2023-04-26T06:17:25.515Z,10.68
2023-04-26T06:19:55.515Z,13.25
2023-04-26T06:22:25.320Z,11.90
2023-04-26T06:24:55.295Z,9.82
2023-04-26T06:27:27.673Z,12.82
2023-04-26T06:29:57.801Z,11.23
2023-04-26T06:32:29.693Z,12.30
2023-04-26T06:34:59.545Z,11.35
2023-04-26T06:37:29.483Z,9.18
2023-04-26T06:39:59.348Z,8.93
2023-04-26T06:42:31.880Z,7.80
2023-04-26T06:45:21.837Z,8.07
2023-04-26T06:47:54.239Z,9.43
2023-04-26T06:50:27.034Z,7.03
2023-04-26T06:52:56.762Z,7.55
2023-04-26T06:55:27.217Z,6.47
2023-04-26T06:57:59.834Z,7.68
2023-04-26T07:00:30.120Z,6.65
2023-04-26T07:03:00.061Z,8.45
2023-04-26T07:05:29.788Z,6.35
2023-04-26T07:07:59.477Z,6.25
2023-04-26T07:10:29.266Z,7.90
2023-04-26T07:13:01.673Z,7.00
2023-04-26T07:15:31.586Z,5.75
2023-04-26T07:18:01.493Z,7.00
2023-04-26T07:20:31.182Z,6.18
2023-04-26T07:23:00.859Z,7.70
2023-04-26T07:25:30.517Z,5.95
2023-04-26T07:28:02.775Z,5.40
2023-04-26T07:30:32.692Z,6.90
2023-04-26T07:33:02.497Z,4.32
2023-04-26T07:35:34.858Z,5.20
2023-04-26T07:38:04.570Z,4.20
2023-04-26T07:40:34.225Z,5.50
2023-04-26T07:43:06.504Z,5.53
2023-04-26T07:45:36.256Z,4.53
2023-04-26T07:48:06.085Z,6.10
2023-04-26T07:50:35.813Z,4.45
2023-04-26T07:53:05.502Z,3.75
2023-04-26T07:55:35.160Z,4.43
2023-04-26T07:58:08.291Z,4.00
2023-04-26T08:00:40.158Z,3.28
2023-04-26T08:03:10.455Z,4.85
2023-04-26T08:05:40.451Z,5.18
2023-04-26T08:08:10.586Z,5.18
2023-04-26T08:10:40.247Z,2.97
2023-04-26T08:13:12.670Z,2.42
2023-04-26T08:15:42.367Z,4.10
2023-04-26T08:18:12.188Z,4.07
2023-04-26T08:20:42.753Z,2.83
2023-04-26T08:23:12.774Z,4.22
2023-04-26T08:25:42.454Z,3.95
2023-04-26T08:28:14.743Z,7.07
2023-04-26T08:30:44.469Z,4.35
2023-04-26T08:33:14.290Z,3.83
2023-04-26T08:35:44.465Z,4.47
2023-04-26T08:38:14.854Z,4.28
2023-04-26T08:40:45.071Z,3.60
2023-04-26T08:43:18.132Z,4.38
2023-04-26T08:45:49.376Z,4.20
2023-04-26T08:48:19.878Z,5.18
2023-04-26T08:50:50.127Z,3.72
2023-04-26T08:53:20.543Z,4.20
2023-04-26T08:55:52.260Z,4.32
2023-04-26T08:58:26.145Z,4.53
2023-04-26T09:03:26.801Z,2.22
2023-04-26T09:05:56.780Z,3.67
2023-04-26T09:08:28.263Z,2.00
2023-04-26T09:10:58.154Z,2.60
2023-04-26T09:13:33.497Z,3.22
2023-04-26T09:16:05.045Z,2.08
2023-04-26T09:18:35.164Z,2.60
2023-04-26T09:21:07.865Z,2.10
2023-04-26T09:23:38.073Z,4.05
2023-04-26T09:26:23.244Z,5.40
2023-04-26T09:29:14.202Z,2.58
2023-04-26T09:31:48.651Z,2.20
2023-04-26T09:34:19.545Z,3.13
2023-04-26T09:36:53.292Z,3.22
2023-04-26T09:39:37.679Z,2.55
2023-04-26T09:42:08.079Z,4.35
2023-04-26T09:44:41.081Z,2.25
2023-04-26T09:47:12.826Z,2.33
2023-04-26T09:49:50.956Z,4.30
2023-04-26T09:52:21.345Z,3.83
2023-04-26T09:54:52.254Z,3.03
2023-04-26T09:57:23.768Z,5.13
2023-04-26T09:59:56.586Z,3.03
2023-04-26T10:02:27.935Z,3.10
2023-04-26T10:05:00.273Z,3.10
2023-04-26T10:07:30.182Z,2.88
2023-04-26T10:10:00.514Z,2.50
2023-04-26T10:12:30.230Z,2.65
2023-04-26T10:15:02.535Z,3.80
2023-04-26T10:17:32.844Z,2.15
2023-04-26T10:20:03.514Z,4.68
2023-04-26T10:22:37.072Z,3.50
2023-04-26T10:25:07.464Z,3.25
2023-04-26T10:27:57.948Z,2.45
2023-04-26T10:30:30.185Z,2.97
2023-04-26T10:33:23.925Z,5.15
2023-04-26T10:36:13.925Z,2.63
2023-04-26T10:38:44.932Z,2.40
2023-04-26T10:41:33.685Z,2.33
2023-04-26T10:44:19.433Z,2.75
2023-04-26T10:46:53.484Z,4.13
2023-04-26T10:49:26.627Z,2.30
2023-04-26T10:52:14.992Z,2.97
2023-04-26T10:54:52.191Z,2.67
2023-04-26T10:57:22.161Z,4.72
2023-04-26T11:00:23.670Z,2.33
2023-04-26T11:03:01.231Z,2.55
2023-04-26T11:05:56.821Z,2.22
2023-04-26T11:08:32.010Z,2.20
2023-04-26T11:11:13.905Z,4.03
2023-04-26T11:13:46.163Z,2.35
2023-04-26T11:16:16.986Z,3.17
2023-04-26T11:18:50.614Z,2.78
2023-04-26T11:21:20.389Z,3.10
2023-04-26T11:23:56.503Z,2.20
2023-04-26T11:26:26.787Z,2.40
2023-04-26T11:28:56.558Z,4.65
2023-04-26T11:31:26.545Z,4.30
2023-04-26T11:34:04.917Z,2.05
2023-04-26T11:36:34.822Z,2.60
2023-04-26T11:39:04.564Z,2.10
2023-04-26T11:41:34.212Z,3.05
2023-04-26T11:44:03.953Z,2.42
2023-04-26T11:46:33.883Z,2.13
2023-04-26T11:49:06.231Z,2.13
2023-04-26T11:51:36.056Z,2.28
2023-04-26T11:54:06.076Z,2.97
2023-04-26T11:56:35.806Z,1.45
2023-04-26T11:59:05.577Z,2.15
2023-04-26T12:01:35.982Z,1.90
2023-04-26T12:04:12.963Z,4.65
2023-04-26T12:06:45.574Z,2.08
2023-04-26T12:09:15.612Z,2.08
2023-04-26T12:11:51.255Z,3.83
2023-04-26T12:14:21.080Z,5.03
2023-04-26T12:16:51.800Z,2.60
2023-04-26T12:19:26.859Z,2.90
2023-04-26T12:21:56.676Z,3.53
2023-04-26T12:24:27.304Z,2.47
2023-04-26T12:26:57.107Z,3.97
2023-04-26T12:29:26.819Z,4.53
2023-04-26T12:31:56.886Z,2.60
2023-04-26T12:34:29.898Z,4.50
2023-04-26T12:37:00.105Z,2.92
2023-04-26T12:39:30.204Z,3.15
2023-04-26T12:42:00.502Z,2.55
2023-04-26T12:44:30.632Z,2.72
2023-04-26T12:47:00.885Z,3.75
2023-04-26T12:49:33.502Z,3.10
2023-04-26T12:52:03.839Z,4.25
2023-04-26T12:54:33.803Z,4.20
2023-04-26T12:57:03.890Z,4.47
2023-04-26T12:59:33.893Z,2.60
2023-04-26T13:02:03.966Z,2.45
2023-04-26T13:04:40.836Z,3.17
2023-04-26T13:07:11.398Z,2.72
2023-04-26T13:09:41.338Z,3.60
2023-04-26T13:12:11.058Z,4.60
2023-04-26T13:14:41.615Z,2.90
2023-04-26T13:17:11.488Z,2.63
2023-04-26T13:19:43.771Z,3.17
2023-04-26T13:22:14.241Z,4.10
2023-04-26T13:24:43.887Z,2.60
2023-04-26T13:27:13.584Z,3.30
2023-04-26T13:29:43.368Z,2.70
2023-04-26T13:32:13.156Z,2.67
2023-04-26T13:34:45.825Z,2.63
2023-04-26T13:37:17.419Z,2.40
2023-04-26T13:39:47.087Z,2.80
2023-04-26T13:42:16.940Z,6.90
2023-04-26T13:44:46.886Z,3.00
2023-04-26T13:47:17.710Z,3.55
2023-04-26T13:49:50.167Z,3.15
2023-04-26T13:52:19.924Z,6.15
2023-04-26T13:54:49.591Z,3.47
2023-04-26T13:57:19.635Z,2.58
2023-04-26T13:59:49.269Z,3.70
2023-04-26T14:02:19.187Z,6.20
2023-04-26T14:04:51.925Z,2.70
2023-04-26T14:07:22.484Z,2.97
2023-04-26T14:09:53.830Z,2.78
2023-04-26T14:12:23.521Z,2.60
2023-04-26T14:14:53.521Z,2.50
2023-04-26T14:17:23.185Z,2.60
2023-04-26T14:19:55.456Z,3.97
2023-04-26T14:22:25.144Z,2.92
2023-04-26T14:24:54.843Z,2.47
2023-04-26T14:27:24.745Z,2.50
2023-04-26T14:29:54.379Z,3.17
2023-04-26T14:32:24.071Z,3.78
2023-04-26T14:34:56.454Z,3.30
2023-04-26T14:37:26.189Z,5.32
2023-04-26T14:39:55.984Z,3.13
2023-04-26T14:42:25.678Z,3.90
2023-04-26T14:44:55.386Z,3.05
2023-04-26T14:47:25.083Z,2.95
2023-04-26T14:49:57.336Z,2.33
2023-04-26T14:52:29.160Z,3.03
2023-04-26T14:54:58.873Z,3.20
2023-04-26T14:57:28.679Z,3.35
2023-04-26T15:00:04.757Z,2.50
2023-04-26T15:02:34.887Z,2.55
2023-04-26T15:05:08.014Z,3.42
2023-04-26T15:07:37.965Z,3.20
2023-04-26T15:10:11.303Z,2.35
2023-04-26T15:12:41.063Z,2.60
2023-04-26T15:15:11.520Z,2.40
2023-04-26T15:17:41.452Z,2.40
2023-04-26T15:20:14.684Z,2.38
2023-04-26T15:22:44.412Z,3.30
2023-04-26T15:25:14.405Z,1.98
2023-04-26T15:27:46.030Z,2.50
2023-04-26T15:30:16.431Z,2.08
2023-04-26T15:32:46.155Z,2.50
2023-04-26T15:35:18.545Z,3.63
2023-04-26T15:37:48.269Z,3.30
2023-04-26T15:40:17.944Z,3.00
2023-04-26T15:42:48.937Z,3.53
2023-04-26T15:45:18.714Z,5.32
2023-04-26T15:47:48.518Z,2.97
2023-04-26T15:50:20.866Z,3.70
2023-04-26T15:52:51.660Z,3.58
2023-04-26T15:55:21.532Z,3.33
2023-04-26T15:57:51.242Z,3.20
2023-04-26T16:00:21.597Z,3.22
2023-04-26T16:02:51.458Z,4.47
2023-04-26T16:05:23.806Z,3.35
2023-04-26T16:07:53.882Z,5.05
2023-04-26T16:10:23.945Z,3.42
2023-04-26T16:12:53.845Z,2.95
2023-04-26T16:15:23.699Z,2.55
2023-04-26T16:17:53.461Z,3.22
2023-04-26T16:20:26.196Z,2.78
2023-04-26T16:22:56.404Z,3.45
2023-04-26T16:25:26.314Z,4.25
2023-04-26T16:27:56.929Z,3.78
2023-04-26T16:30:26.618Z,2.78
2023-04-26T16:32:56.338Z,2.30
2023-04-26T16:35:28.729Z,3.85
2023-04-26T16:37:58.367Z,2.90
2023-04-26T16:40:27.997Z,2.92
2023-04-26T16:42:57.726Z,3.00
2023-04-26T16:45:27.885Z,2.97
2023-04-26T16:47:57.598Z,4.70
2023-04-26T16:50:29.990Z,5.63
2023-04-26T16:52:59.864Z,4.82
2023-04-26T16:55:29.572Z,3.55
2023-04-26T16:57:59.236Z,3.55
2023-04-26T17:00:29.299Z,3.97
2023-04-26T17:02:59.129Z,3.45
2023-04-26T17:05:31.583Z,3.85
2023-04-26T17:08:01.352Z,4.20
2023-04-26T17:10:31.083Z,3.33
2023-04-26T17:13:00.809Z,7.68
2023-04-26T17:15:30.613Z,3.72
2023-04-26T17:18:00.457Z,3.30
2023-04-26T17:20:33.359Z,6.22
2023-04-26T17:23:04.151Z,5.75
2023-04-26T17:25:34.188Z,4.28
2023-04-26T17:28:03.853Z,4.97
2023-04-26T17:30:33.540Z,4.28
2023-04-26T17:33:03.416Z,5.22
2023-04-26T17:35:35.932Z,4.68
2023-04-26T17:38:05.961Z,4.15
2023-04-26T17:40:35.659Z,4.80
2023-04-26T17:43:05.558Z,5.47
2023-04-26T17:45:35.339Z,5.10
2023-04-26T17:48:05.553Z,6.82
2023-04-26T17:50:37.895Z,7.95
2023-04-26T17:53:08.205Z,6.18
2023-04-26T17:55:37.963Z,5.03
2023-04-26T17:58:08.065Z,5.18
2023-04-26T18:00:37.983Z,4.63
2023-04-26T18:03:08.046Z,6.18
2023-04-26T18:05:40.513Z,6.18
2023-04-26T18:08:10.183Z,4.18
2023-04-26T18:10:40.072Z,4.47
2023-04-26T18:13:11.227Z,4.88
2023-04-26T18:15:41.041Z,4.25
2023-04-26T18:18:10.749Z,5.13
2023-04-26T18:20:43.152Z,4.88
2023-04-26T18:23:12.829Z,5.07
2023-04-26T18:25:42.516Z,5.60
2023-04-26T18:28:12.744Z,5.88
2023-04-26T18:30:42.524Z,4.07
2023-04-26T18:33:12.234Z,10.00
2023-04-26T18:35:44.616Z,5.20
2023-04-26T18:38:14.250Z,6.25
2023-04-26T18:40:46.087Z,5.45
2023-04-26T18:43:15.854Z,4.38
2023-04-26T18:45:45.770Z,4.90
2023-04-26T18:48:15.512Z,3.38
2023-04-26T18:50:54.003Z,3.55
2023-04-26T18:53:24.384Z,4.47
2023-04-26T18:55:54.607Z,4.20
2023-04-26T18:58:24.268Z,6.45
2023-04-26T19:00:53.970Z,4.15
2023-04-26T19:03:23.939Z,3.08
2023-04-26T19:05:56.603Z,5.28
2023-04-26T19:08:27.813Z,3.90
2023-04-26T19:10:57.529Z,4.95
2023-04-26T19:13:27.468Z,4.15
2023-04-26T19:15:57.193Z,5.25
2023-04-26T19:18:27.230Z,5.57
2023-04-26T19:20:59.556Z,3.35
2023-04-26T19:23:29.205Z,4.90
2023-04-26T19:26:04.595Z,7.28
2023-04-26T19:28:34.372Z,3.38
2023-04-26T19:31:04.372Z,4.82
2023-04-26T19:33:34.035Z,3.70
2023-04-26T19:36:06.685Z,4.55
2023-04-26T19:38:36.316Z,4.30
2023-04-26T19:41:06.081Z,4.50
2023-04-26T19:43:35.726Z,4.13
2023-04-26T19:46:13.716Z,3.90
2023-04-26T19:48:43.637Z,5.70
2023-04-26T19:51:20.052Z,3.65
2023-04-26T19:53:49.735Z,3.80
2023-04-26T19:56:19.413Z,4.30
2023-04-26T19:58:49.070Z,7.45
2023-04-26T20:01:18.802Z,3.65
2023-04-26T20:03:48.637Z,3.80
2023-04-26T20:06:21.004Z,3.13
2023-04-26T20:08:50.838Z,4.88
2023-04-26T20:11:20.648Z,6.57
2023-04-26T20:13:50.303Z,6.93
2023-04-26T20:16:20.213Z,3.10
2023-04-26T20:18:50.495Z,3.55
2023-04-26T20:21:22.822Z,4.40
2023-04-26T20:23:52.488Z,3.20
2023-04-26T20:26:22.183Z,3.60
2023-04-26T20:28:51.835Z,6.43
2023-04-26T20:31:21.578Z,5.93
2023-04-26T20:33:51.464Z,4.20
2023-04-26T20:36:25.620Z,4.70
2023-04-26T20:41:24.753Z,3.60
2023-04-26T20:43:55.144Z,4.32
2023-04-26T20:46:24.892Z,10.32
2023-04-26T20:48:54.636Z,3.83
2023-04-26T20:51:27.033Z,5.72
2023-04-26T20:53:56.692Z,3.20
2023-04-26T20:56:26.423Z,3.85
2023-04-26T20:58:56.833Z,4.00
2023-04-26T21:01:26.745Z,2.90
2023-04-26T21:03:56.563Z,3.88
2023-04-26T21:06:29.659Z,3.20
2023-04-26T21:08:59.736Z,5.40
2023-04-26T21:11:29.542Z,4.20
2023-04-26T21:13:59.237Z,6.35
2023-04-26T21:16:29.009Z,4.85
2023-04-26T21:18:58.828Z,3.80
2023-04-26T21:21:32.714Z,6.72
2023-04-26T21:24:02.775Z,6.10
2023-04-26T21:26:32.921Z,6.05
2023-04-26T21:29:02.610Z,5.18
2023-04-26T21:31:32.508Z,6.75
2023-04-26T21:34:02.161Z,5.63
2023-04-26T21:36:34.421Z,7.65
2023-04-26T21:39:04.128Z,3.72
2023-04-26T21:41:33.852Z,6.13
2023-04-26T21:44:03.521Z,5.22
2023-04-26T21:46:33.309Z,5.03
2023-04-26T21:49:03.020Z,5.93
2023-04-26T21:51:35.239Z,5.20
2023-04-26T21:54:04.917Z,4.20
2023-04-26T21:56:34.615Z,8.48
2023-04-26T21:59:04.862Z,4.07
2023-04-26T22:01:34.573Z,6.43
2023-04-26T22:04:04.385Z,6.53
2023-04-26T22:06:36.754Z,4.47
2023-04-26T22:09:09.769Z,5.63
2023-04-26T22:11:39.784Z,4.82
2023-04-26T22:14:09.424Z,5.70
2023-04-26T22:16:39.393Z,4.75
2023-04-26T22:19:09.330Z,4.55
2023-04-26T22:21:42.003Z,6.75
2023-04-26T22:24:11.919Z,6.07
2023-04-26T22:26:41.598Z,5.75
2023-04-26T22:29:11.859Z,5.97
2023-04-26T22:31:41.930Z,5.75
2023-04-26T22:34:11.895Z,4.05
2023-04-26T22:36:44.595Z,4.38
2023-04-26T22:39:14.392Z,4.70
2023-04-26T22:41:44.068Z,5.43
2023-04-26T22:44:15.073Z,6.38
2023-04-26T22:46:44.783Z,4.60
2023-04-26T22:49:14.440Z,6.00
2023-04-26T22:51:57.325Z,7.45
2023-04-26T22:54:35.274Z,4.57
2023-04-26T22:57:07.473Z,5.05
2023-04-26T22:59:37.120Z,3.92
2023-04-26T23:02:07.305Z,5.50
2023-04-26T23:04:36.993Z,4.70
2023-04-26T23:07:09.277Z,5.78
2023-04-26T23:09:39.019Z,5.35
2023-04-26T23:12:09.880Z,5.35
2023-04-26T23:14:39.569Z,4.72
2023-04-26T23:17:09.297Z,7.70
2023-04-26T23:19:39.110Z,7.50
2023-04-26T23:22:11.448Z,5.90
2023-04-26T23:24:41.284Z,6.25
2023-04-26T23:27:11.113Z,4.18
2023-04-26T23:29:40.914Z,7.85
2023-04-26T23:32:10.583Z,4.50
2023-04-26T23:34:40.283Z,5.43
2023-04-26T23:37:12.525Z,4.72
2023-04-26T23:39:42.191Z,8.18
2023-04-26T23:42:11.862Z,6.72
2023-04-26T23:44:41.549Z,5.63
2023-04-26T23:47:11.202Z,4.82
2023-04-26T23:49:40.900Z,7.55
2023-04-26T23:52:13.120Z,7.57
2023-04-26T23:54:42.930Z,5.68
2023-04-26T23:57:12.715Z,4.50
2023-04-26T23:59:42.372Z,4.85
